createdAt,value
2018-12-13T00:00:44.380Z,81.83
2018-12-13T00:03:12.513Z,82.99
2018-12-13T00:05:40.741Z,83.27
2018-12-13T00:08:08.960Z,82.33
2018-12-13T00:10:37.195Z,83.83
2018-12-13T00:13:05.305Z,83.83
2018-12-13T00:15:33.741Z,82.91
2018-12-13T00:18:01.913Z,82.44
2018-12-13T00:20:30.207Z,82.47
2018-12-13T00:22:58.283Z,81.27
2018-12-13T00:25:26.525Z,81.15
2018-12-13T00:27:54.839Z,80.28
2018-12-13T00:30:23.160Z,80.14
2018-12-13T00:32:51.561Z,79.54
2018-12-13T00:35:19.892Z,79.10
2018-12-13T00:37:48.172Z,79.70
2018-12-13T00:40:16.474Z,80.13
2018-12-13T00:42:44.582Z,80.39
2018-12-13T00:45:12.683Z,80.11
2018-12-13T00:47:41.006Z,80.73
2018-12-13T00:50:09.353Z,80.07
2018-12-13T00:52:37.625Z,79.37
2018-12-13T00:55:06.084Z,79.97
2018-12-13T00:57:34.240Z,79.54
2018-12-13T01:00:02.421Z,79.35
2018-12-13T01:02:30.725Z,79.65
2018-12-13T01:04:58.854Z,79.79
2018-12-13T01:07:27.177Z,80.22
2018-12-13T01:09:55.279Z,81.43
2018-12-13T01:12:23.478Z,82.10
2018-12-13T01:14:51.605Z,82.69
2018-12-13T01:17:19.928Z,83.46
2018-12-13T01:19:48.039Z,83.84
2018-12-13T01:22:16.098Z,83.53
2018-12-13T01:24:44.326Z,84.20
2018-12-13T01:27:12.460Z,84.35
2018-12-13T01:29:40.594Z,85.21
2018-12-13T01:32:08.845Z,84.88
2018-12-13T01:34:36.991Z,85.42
2018-12-13T01:37:05.116Z,85.05
2018-12-13T01:39:33.193Z,84.57
2018-12-13T01:42:01.515Z,83.99
2018-12-13T01:44:29.682Z,84.01
2018-12-13T01:46:57.836Z,83.59
2018-12-13T01:49:25.985Z,82.73
2018-12-13T01:51:54.138Z,82.62
2018-12-13T01:54:22.247Z,83.00
2018-12-13T01:56:50.404Z,82.19
2018-12-13T01:59:18.524Z,82.58
2018-12-13T02:01:46.868Z,81.71
2018-12-13T02:04:15.150Z,81.61
2018-12-13T02:06:43.330Z,80.54
2018-12-13T02:09:11.604Z,80.31
2018-12-13T02:11:39.916Z,79.98
2018-12-13T02:14:08.044Z,80.42
2018-12-13T02:16:36.140Z,79.41
2018-12-13T02:19:04.567Z,79.34
2018-12-13T02:21:32.684Z,77.16
2018-12-13T02:24:02.098Z,77.74
2018-12-13T02:26:30.500Z,77.91
2018-12-13T02:28:58.775Z,77.08
2018-12-13T02:31:27.054Z,77.89
2018-12-13T02:33:58.830Z,77.95
2018-12-13T02:36:27.164Z,77.91
2018-12-13T02:38:55.406Z,77.14
2018-12-13T02:41:23.613Z,77.04
2018-12-13T02:43:52.529Z,77.73
2018-12-13T02:46:20.708Z,78.23
2018-12-13T02:48:54.268Z,78.55
2018-12-13T02:51:22.421Z,78.03
2018-12-13T02:53:50.686Z,78.03
2018-12-13T02:56:18.809Z,78.68
2018-12-13T02:58:46.917Z,79.05
2018-12-13T03:01:15.055Z,79.03
2018-12-13T03:03:43.413Z,79.07
2018-12-13T03:06:11.568Z,78.35
2018-12-13T03:08:39.652Z,77.16
2018-12-13T03:11:07.799Z,78.20
2018-12-13T03:13:35.905Z,77.83
2018-12-13T03:16:04.402Z,77.26
2018-12-13T03:18:32.727Z,77.12
2018-12-13T03:21:00.838Z,76.54
2018-12-13T03:23:29.323Z,76.62
2018-12-13T03:25:57.527Z,76.64
2018-12-13T03:28:25.811Z,76.70
2018-12-13T03:30:53.952Z,77.43
2018-12-13T03:33:22.378Z,76.83
2018-12-13T03:35:50.461Z,76.20
2018-12-13T03:38:18.819Z,76.44
2018-12-13T03:40:46.949Z,76.50
2018-12-13T03:43:15.218Z,75.65
2018-12-13T03:45:43.426Z,75.54
2018-12-13T03:48:11.544Z,75.29
2018-12-13T03:50:39.786Z,75.34
2018-12-13T03:53:08.092Z,76.46
2018-12-13T03:55:36.237Z,76.86
2018-12-13T03:58:04.478Z,76.34
2018-12-13T04:00:32.615Z,76.53
2018-12-13T04:03:00.950Z,76.06
2018-12-13T04:05:30.325Z,76.92
2018-12-13T04:07:58.492Z,77.90
2018-12-13T04:10:26.816Z,77.60
2018-12-13T04:12:55.092Z,76.28
2018-12-13T04:15:23.227Z,77.50
2018-12-13T04:17:51.384Z,77.95
2018-12-13T04:20:19.740Z,76.89
2018-12-13T04:22:47.887Z,76.94
2018-12-13T04:25:16.218Z,77.48
2018-12-13T04:27:44.309Z,77.82
2018-12-13T04:30:12.760Z,77.22
2018-12-13T04:32:40.981Z,77.54
2018-12-13T04:35:09.163Z,77.52
2018-12-13T04:37:37.440Z,78.02
2018-12-13T04:40:05.862Z,77.81
2018-12-13T04:42:33.971Z,77.01
2018-12-13T04:45:02.520Z,77.87
2018-12-13T04:47:30.625Z,78.34
2018-12-13T04:49:59.034Z,78.28
2018-12-13T04:52:27.208Z,78.61
2018-12-13T04:54:55.536Z,79.40
2018-12-13T04:57:24.572Z,78.69
2018-12-13T04:59:52.745Z,78.55
2018-12-13T05:02:20.916Z,78.99
2018-12-13T05:04:49.198Z,78.18
2018-12-13T05:07:17.319Z,77.88
2018-12-13T05:09:52.418Z,78.88
2018-12-13T05:12:20.745Z,78.88
2018-12-13T05:14:48.857Z,78.95
2018-12-13T05:17:16.985Z,79.45
2018-12-13T05:19:45.234Z,79.61
2018-12-13T05:22:13.370Z,79.64
2018-12-13T05:24:41.551Z,79.72
2018-12-13T05:27:09.797Z,79.77
2018-12-13T05:29:38.111Z,79.70
2018-12-13T05:32:06.906Z,79.35
2018-12-13T05:34:35.233Z,79.38
2018-12-13T05:37:03.380Z,79.86
2018-12-13T05:39:31.824Z,80.00
2018-12-13T05:41:59.957Z,80.63
2018-12-13T05:44:28.645Z,79.42
2018-12-13T05:46:57.107Z,79.86
2018-12-13T05:49:25.463Z,80.93
2018-12-13T05:51:54.281Z,80.45
2018-12-13T05:54:22.898Z,79.93
2018-12-13T05:56:51.145Z,80.65
2018-12-13T05:59:19.455Z,80.40
2018-12-13T06:01:48.849Z,80.62
2018-12-13T06:04:17.008Z,80.67
2018-12-13T06:06:45.154Z,80.80
2018-12-13T06:09:13.336Z,82.04
2018-12-13T06:11:41.604Z,82.39
2018-12-13T06:14:09.750Z,81.74
2018-12-13T06:16:37.958Z,82.05
2018-12-13T06:19:06.128Z,80.62
2018-12-13T06:21:37.005Z,80.53
2018-12-13T06:24:04.620Z,80.24
2018-12-13T06:26:32.726Z,80.53
2018-12-13T06:29:00.976Z,80.79
2018-12-13T06:31:29.252Z,80.46
2018-12-13T06:33:57.497Z,80.79
2018-12-13T06:36:25.778Z,79.88
2018-12-13T06:38:53.941Z,80.51
2018-12-13T06:41:23.019Z,80.51
2018-12-13T06:43:52.326Z,80.16
2018-12-13T06:46:20.937Z,80.56
2018-12-13T06:48:49.089Z,81.71
2018-12-13T06:51:17.232Z,81.42
2018-12-13T06:53:45.303Z,80.60
2018-12-13T06:56:13.439Z,80.81
2018-12-13T06:58:41.585Z,81.48
2018-12-13T07:01:10.039Z,80.57
2018-12-13T07:03:38.203Z,80.73
2018-12-13T07:06:06.365Z,80.96
2018-12-13T07:08:34.671Z,81.31
2018-12-13T07:11:03.010Z,81.10
2018-12-13T07:13:31.196Z,80.49
2018-12-13T07:15:59.532Z,81.17
2018-12-13T07:18:27.690Z,80.88
2018-12-13T07:20:55.894Z,80.88
2018-12-13T07:23:24.103Z,81.22
2018-12-13T07:25:52.235Z,81.32
2018-12-13T07:28:20.441Z,81.20
2018-12-13T07:30:48.781Z,81.10
2018-12-13T07:33:16.988Z,81.02
2018-12-13T07:35:45.169Z,81.22
2018-12-13T07:38:14.472Z,81.92
2018-12-13T07:40:43.220Z,81.52
2018-12-13T07:43:11.348Z,81.91
2018-12-13T07:45:39.518Z,82.37
2018-12-13T07:48:07.896Z,82.19
2018-12-13T07:50:36.056Z,82.33
2018-12-13T07:53:04.361Z,82.29
2018-12-13T07:55:32.465Z,82.01
2018-12-13T07:58:00.586Z,81.93
2018-12-13T08:00:28.956Z,82.51
2018-12-13T08:02:57.326Z,82.97
2018-12-13T08:05:27.578Z,81.90
2018-12-13T08:07:55.859Z,81.33
2018-12-13T08:10:24.010Z,81.31
2018-12-13T08:12:52.175Z,81.88
2018-12-13T08:15:21.566Z,80.88
2018-12-13T08:17:49.663Z,81.57
2018-12-13T08:20:17.872Z,81.54
2018-12-13T08:22:46.247Z,82.32
2018-12-13T08:25:14.368Z,82.32
2018-12-13T08:27:42.518Z,81.84
2018-12-13T08:30:10.856Z,81.23
2018-12-13T08:32:39.237Z,82.10
2018-12-13T08:35:07.602Z,82.69
2018-12-13T08:37:35.694Z,82.10
2018-12-13T08:40:04.956Z,80.62
2018-12-13T08:42:33.076Z,81.32
2018-12-13T08:45:01.229Z,81.03
2018-12-13T08:47:29.360Z,80.55
2018-12-13T08:49:57.465Z,80.33
2018-12-13T08:52:25.637Z,81.48
2018-12-13T08:54:53.749Z,80.46
2018-12-13T08:57:21.875Z,80.45
2018-12-13T08:59:49.983Z,79.85
2018-12-13T09:02:18.259Z,80.59
2018-12-13T09:04:46.369Z,80.29
2018-12-13T09:07:14.431Z,80.88
2018-12-13T09:09:42.629Z,80.63
2018-12-13T09:12:10.758Z,80.26
2018-12-13T09:14:38.925Z,80.05
2018-12-13T09:17:07.030Z,80.10
2018-12-13T09:19:35.258Z,80.10
2018-12-13T09:22:03.624Z,80.41
2018-12-13T09:24:31.736Z,80.19
2018-12-13T09:26:59.888Z,79.63
2018-12-13T09:29:28.147Z,79.77
2018-12-13T09:31:56.250Z,78.89
2018-12-13T09:34:24.474Z,78.98
2018-12-13T09:36:52.635Z,78.31
2018-12-13T09:39:20.798Z,78.61
2018-12-13T09:41:49.142Z,76.93
2018-12-13T09:44:17.302Z,77.39
2018-12-13T09:46:46.590Z,76.51
2018-12-13T09:49:14.823Z,75.90
2018-12-13T09:51:43.037Z,76.26
2018-12-13T09:54:11.134Z,75.72
2018-12-13T09:56:39.336Z,75.70
2018-12-13T09:59:07.445Z,76.30
2018-12-13T10:01:35.574Z,76.96
2018-12-13T10:04:03.906Z,76.74
2018-12-13T10:06:32.114Z,76.29
2018-12-13T10:09:00.259Z,76.63
2018-12-13T10:11:28.556Z,76.44
2018-12-13T10:13:56.711Z,76.11
2018-12-13T10:16:24.965Z,76.70
2018-12-13T10:18:53.142Z,76.74
2018-12-13T10:21:21.305Z,76.64
2018-12-13T10:23:49.424Z,76.79
2018-12-13T10:26:17.723Z,77.09
2018-12-13T10:28:45.915Z,76.68
2018-12-13T10:31:14.336Z,76.50
2018-12-13T10:33:42.504Z,77.38
2018-12-13T10:36:10.727Z,76.94
2018-12-13T10:38:39.028Z,77.32
2018-12-13T10:41:07.090Z,77.58
2018-12-13T10:43:35.212Z,77.42
2018-12-13T10:46:03.310Z,76.34
2018-12-13T10:48:31.870Z,76.50
2018-12-13T10:51:00.106Z,76.44
2018-12-13T10:53:28.232Z,77.09
2018-12-13T10:55:56.337Z,77.83
2018-12-13T10:58:24.511Z,77.89
2018-12-13T11:00:58.503Z,77.46
2018-12-13T11:03:41.452Z,77.64
2018-12-13T11:06:09.594Z,76.63
2018-12-13T11:08:37.782Z,76.93
2018-12-13T11:11:06.034Z,75.94
2018-12-13T11:13:34.183Z,75.20
2018-12-13T11:16:02.358Z,74.74
2018-12-13T11:18:30.530Z,74.24
2018-12-13T11:20:58.680Z,74.43
2018-12-13T11:23:26.824Z,73.80
2018-12-13T11:25:54.968Z,73.72
2018-12-13T11:29:39.554Z,73.80
2018-12-13T11:32:07.659Z,73.57
2018-12-13T11:34:36.329Z,74.12
2018-12-13T11:37:04.532Z,73.66
2018-12-13T11:39:32.620Z,74.27
2018-12-13T11:42:00.710Z,74.52
2018-12-13T11:44:29.897Z,74.56
2018-12-13T11:46:58.229Z,74.22
2018-12-13T11:49:26.440Z,74.78
2018-12-13T11:51:54.566Z,74.98
2018-12-13T11:54:55.543Z,75.07
2018-12-13T11:57:24.371Z,75.34
2018-12-13T11:59:52.521Z,75.74
2018-12-13T12:02:24.026Z,75.63
2018-12-13T12:04:50.683Z,74.87
2018-12-13T12:07:18.858Z,74.62
2018-12-13T12:09:46.940Z,74.99
2018-12-13T12:12:15.061Z,74.46
2018-12-13T12:14:43.193Z,74.33
2018-12-13T12:17:11.278Z,73.61
2018-12-13T12:19:39.397Z,73.33
2018-12-13T12:22:07.540Z,73.81
2018-12-13T12:24:35.696Z,74.22
2018-12-13T12:27:03.902Z,74.54
2018-12-13T12:29:31.969Z,74.59
2018-12-13T12:32:00.104Z,74.12
2018-12-13T12:34:28.250Z,75.03
2018-12-13T12:36:56.370Z,75.14
2018-12-13T12:39:24.504Z,75.49
2018-12-13T12:41:52.664Z,75.64
2018-12-13T12:44:20.798Z,75.44
2018-12-13T12:46:48.903Z,75.35
2018-12-13T12:49:16.996Z,75.24
2018-12-13T12:51:45.139Z,75.10
2018-12-13T12:54:13.276Z,75.33
2018-12-13T12:56:41.498Z,76.42
2018-12-13T12:59:09.592Z,76.41
2018-12-13T13:01:37.902Z,76.51
2018-12-13T13:04:06.153Z,77.18
2018-12-13T13:06:34.316Z,77.32
2018-12-13T13:09:03.812Z,77.82
2018-12-13T13:11:31.933Z,77.35
2018-12-13T13:14:00.119Z,77.27
2018-12-13T13:16:28.285Z,78.10
2018-12-13T13:18:56.553Z,78.55
2018-12-13T13:21:24.667Z,78.47
2018-12-13T13:23:52.739Z,77.83
2018-12-13T13:26:20.915Z,78.10
2018-12-13T13:28:49.118Z,78.26
2018-12-13T13:31:18.599Z,78.81
2018-12-13T13:33:47.230Z,77.45
2018-12-13T13:36:15.566Z,77.83
2018-12-13T13:38:43.703Z,77.33
2018-12-13T13:41:11.880Z,78.45
2018-12-13T13:43:43.116Z,78.73
2018-12-13T13:46:12.640Z,78.89
2018-12-13T13:48:41.822Z,78.76
2018-12-13T13:51:09.948Z,79.56
2018-12-13T13:53:38.050Z,78.59
2018-12-13T13:56:06.212Z,78.00
2018-12-13T13:58:34.480Z,78.04
2018-12-13T14:01:02.672Z,78.43
2018-12-13T14:03:30.776Z,78.97
2018-12-13T14:05:59.307Z,79.60
2018-12-13T14:08:27.410Z,79.47
2018-12-13T14:10:55.607Z,78.34
2018-12-13T14:13:23.707Z,79.43
2018-12-13T14:15:51.949Z,79.61
2018-12-13T14:18:20.106Z,80.12
2018-12-13T14:20:48.353Z,80.41
2018-12-13T14:23:17.613Z,80.82
2018-12-13T14:25:45.769Z,81.37
2018-12-13T14:28:13.905Z,80.91
2018-12-13T14:30:42.158Z,81.60
2018-12-13T14:33:10.686Z,81.32
2018-12-13T14:35:39.123Z,81.68
2018-12-13T14:38:07.249Z,80.71
2018-12-13T14:40:35.352Z,81.09
2018-12-13T14:43:03.554Z,81.34
2018-12-13T14:45:31.747Z,81.10
2018-12-13T14:47:59.889Z,80.73
2018-12-13T14:50:28.090Z,81.14
2018-12-13T14:52:56.223Z,81.57
2018-12-13T14:55:24.338Z,81.93
2018-12-13T14:57:52.501Z,81.30
2018-12-13T15:00:20.706Z,80.63
2018-12-13T15:02:48.805Z,80.05
2018-12-13T15:05:16.983Z,81.27
2018-12-13T15:07:45.145Z,80.61
2018-12-13T15:10:13.261Z,81.11
2018-12-13T15:12:41.444Z,80.75
2018-12-13T15:15:09.845Z,81.34
2018-12-13T15:17:39.227Z,81.60
2018-12-13T15:20:09.545Z,82.10
2018-12-13T15:22:37.724Z,81.38
2018-12-13T15:25:07.555Z,82.34
2018-12-13T15:27:35.843Z,81.58
2018-12-13T15:30:04.811Z,81.08
2018-12-13T15:32:32.963Z,81.09
2018-12-13T15:35:01.107Z,81.67
2018-12-13T15:37:36.313Z,81.04
2018-12-13T15:40:04.804Z,81.39
2018-12-13T15:42:32.898Z,82.17
2018-12-13T15:45:01.032Z,82.56
2018-12-13T15:47:29.171Z,81.96
2018-12-13T15:49:57.398Z,81.92
2018-12-13T15:52:25.525Z,82.26
2018-12-13T15:54:53.694Z,81.64
2018-12-13T15:57:21.752Z,81.88
2018-12-13T15:59:49.942Z,81.83
2018-12-13T16:02:18.031Z,82.00
2018-12-13T16:04:46.158Z,81.53
2018-12-13T16:07:14.215Z,81.35
2018-12-13T16:09:42.427Z,81.30
2018-12-13T16:12:10.635Z,81.32
2018-12-13T16:14:38.758Z,81.53
2018-12-13T16:17:07.034Z,81.36
2018-12-13T16:19:35.109Z,81.79
2018-12-13T16:22:03.343Z,82.06
2018-12-13T16:24:31.459Z,82.33
2018-12-13T16:26:59.585Z,81.94
2018-12-13T16:29:27.671Z,82.42
2018-12-13T16:31:59.699Z,82.84
2018-12-13T16:34:27.786Z,82.99
2018-12-13T16:36:56.316Z,81.63
2018-12-13T16:39:24.425Z,81.51
2018-12-13T16:41:52.713Z,81.53
2018-12-13T16:44:21.632Z,80.73
2018-12-13T16:46:49.893Z,81.71
2018-12-13T16:49:18.899Z,81.37
2018-12-13T16:51:47.088Z,82.20
2018-12-13T16:54:15.304Z,82.10
2018-12-13T16:56:43.430Z,83.01
2018-12-13T16:59:11.521Z,82.66
2018-12-13T17:01:40.726Z,82.34
2018-12-13T17:04:08.888Z,82.08
2018-12-13T17:06:37.126Z,82.23
2018-12-13T17:09:06.880Z,81.97
2018-12-13T17:11:35.350Z,82.50
2018-12-13T17:14:03.556Z,83.12
2018-12-13T17:16:31.682Z,82.98
2018-12-13T17:18:59.756Z,82.43
2018-12-13T17:21:27.860Z,82.30
2018-12-13T17:23:56.014Z,82.37
2018-12-13T17:26:24.207Z,81.51
2018-12-13T17:28:52.322Z,81.44
2018-12-13T17:31:20.554Z,82.15
2018-12-13T17:33:48.664Z,81.90
2018-12-13T17:36:16.777Z,82.63
2018-12-13T17:38:45.643Z,82.09
2018-12-13T17:41:13.991Z,82.34
2018-12-13T17:43:42.070Z,81.55
2018-12-13T17:46:10.307Z,82.60
2018-12-13T17:48:38.458Z,82.32
2018-12-13T17:51:07.089Z,82.63
2018-12-13T17:53:35.561Z,83.04
2018-12-13T17:56:04.395Z,83.33
2018-12-13T17:58:32.678Z,83.41
2018-12-13T18:01:03.097Z,82.88
2018-12-13T18:03:31.260Z,82.80
2018-12-13T18:06:00.356Z,82.53
2018-12-13T18:08:29.241Z,82.63
2018-12-13T18:10:57.386Z,83.97
2018-12-13T18:13:26.278Z,83.47
2018-12-13T18:15:54.476Z,83.42
2018-12-13T18:18:23.157Z,83.49
2018-12-13T18:20:51.827Z,84.10
2018-12-13T18:23:22.158Z,84.06
2018-12-13T18:25:50.325Z,83.87
2018-12-13T18:28:19.499Z,83.99
2018-12-13T18:30:47.605Z,83.94
2018-12-13T18:33:16.555Z,83.96
2018-12-13T18:35:45.266Z,83.66
2018-12-13T18:38:20.437Z,83.47
2018-12-13T18:40:48.621Z,83.63
2018-12-13T18:43:16.731Z,83.01
2018-12-13T18:45:44.840Z,83.66
2018-12-13T18:48:13.771Z,83.62
2018-12-13T18:50:41.905Z,83.42
2018-12-13T18:53:11.257Z,83.98
2018-12-13T18:55:39.687Z,84.13
2018-12-13T18:58:07.821Z,83.22
2018-12-13T19:00:36.766Z,82.22
2018-12-13T19:03:05.604Z,82.89
2018-12-13T19:05:34.336Z,82.93
2018-12-13T19:08:02.571Z,83.36
2018-12-13T19:10:30.765Z,83.17
2018-12-13T19:12:58.899Z,82.72
2018-12-13T19:15:27.109Z,82.77
2018-12-13T19:17:55.235Z,83.27
2018-12-13T19:20:23.957Z,82.41
2018-12-13T19:22:52.845Z,82.84
2018-12-13T19:25:20.976Z,82.48
2018-12-13T19:27:49.191Z,82.27
2018-12-13T19:30:17.687Z,82.48
2018-12-13T19:32:45.944Z,82.88
2018-12-13T19:35:19.331Z,82.27
2018-12-13T19:37:44.320Z,82.97
2018-12-13T19:40:12.524Z,82.09
2018-12-13T19:42:40.723Z,82.21
2018-12-13T19:45:08.861Z,82.28
2018-12-13T19:47:37.099Z,82.73
2018-12-13T19:50:05.686Z,82.80
2018-12-13T19:52:33.831Z,82.95
2018-12-13T19:55:01.916Z,82.84
2018-12-13T19:57:30.805Z,82.23
2018-12-13T19:59:58.986Z,82.50
2018-12-13T20:02:27.138Z,82.66
2018-12-13T20:04:55.328Z,82.46
2018-12-13T20:07:23.660Z,82.14
2018-12-13T20:09:51.762Z,82.29
2018-12-13T20:12:20.009Z,82.38
2018-12-13T20:14:49.050Z,82.18
2018-12-13T20:17:17.273Z,82.80
2018-12-13T20:19:45.364Z,82.62
2018-12-13T20:22:13.521Z,82.82
2018-12-13T20:24:41.614Z,82.15
2018-12-13T20:27:09.794Z,82.61
2018-12-13T20:29:38.566Z,82.68
2018-12-13T20:34:55.287Z,82.78
2018-12-13T20:37:23.766Z,82.94
2018-12-13T20:39:51.855Z,83.27
2018-12-13T20:42:20.017Z,83.35
2018-12-13T20:44:48.131Z,83.03
2018-12-13T20:47:16.268Z,83.29
2018-12-13T20:49:44.354Z,83.21
2018-12-13T20:52:12.473Z,83.05
2018-12-13T20:54:40.574Z,83.37
2018-12-13T20:57:08.688Z,83.11
2018-12-13T20:59:36.814Z,83.14
2018-12-13T21:02:05.364Z,82.24
2018-12-13T21:04:33.507Z,82.48
2018-12-13T21:07:07.500Z,82.74
2018-12-13T21:09:35.647Z,82.96
2018-12-13T21:12:03.866Z,82.73
2018-12-13T21:14:32.231Z,82.75
2018-12-13T21:17:00.340Z,82.49
2018-12-13T21:19:28.450Z,82.72
2018-12-13T21:21:56.588Z,82.49
2018-12-13T21:24:24.697Z,82.48
2018-12-13T21:26:52.931Z,83.02
2018-12-13T21:29:21.018Z,81.97
2018-12-13T21:31:49.194Z,82.10
2018-12-13T21:34:17.337Z,83.08
2018-12-13T21:36:45.480Z,82.94
2018-12-13T21:39:13.665Z,82.74
2018-12-13T21:41:41.796Z,82.08
2018-12-13T21:44:09.877Z,82.29
2018-12-13T21:46:38.031Z,82.78
2018-12-13T21:49:06.310Z,82.59
2018-12-13T21:51:34.576Z,82.08
2018-12-13T21:54:02.841Z,82.42
2018-12-13T21:56:30.966Z,82.57
2018-12-13T21:59:03.644Z,82.46
2018-12-13T22:01:29.382Z,83.47
2018-12-13T22:03:57.536Z,83.22
2018-12-13T22:06:25.768Z,83.67
2018-12-13T22:08:53.891Z,83.59
2018-12-13T22:11:22.055Z,83.62
2018-12-13T22:13:50.170Z,83.28
2018-12-13T22:16:18.472Z,83.38
2018-12-13T22:18:46.708Z,83.63
2018-12-13T22:21:14.964Z,83.94
2018-12-13T22:23:43.139Z,83.49
2018-12-13T22:26:11.513Z,83.76
2018-12-13T22:28:40.073Z,83.77
2018-12-13T22:31:09.663Z,84.58
2018-12-13T22:33:42.088Z,84.22
2018-12-13T22:36:10.269Z,83.58
2018-12-13T22:38:38.438Z,83.55
2018-12-13T22:41:06.805Z,83.45
2018-12-13T22:43:35.117Z,83.52
2018-12-13T22:46:03.818Z,84.25
2018-12-13T22:48:32.733Z,84.23
2018-12-13T22:51:02.004Z,83.58
2018-12-13T22:53:30.181Z,83.55
2018-12-13T22:55:58.421Z,84.00
2018-12-13T22:58:26.755Z,83.63
2018-12-13T23:00:55.167Z,84.25
2018-12-13T23:03:23.365Z,84.17
2018-12-13T23:05:51.592Z,84.65
2018-12-13T23:08:19.807Z,84.32
2018-12-13T23:10:48.237Z,84.01
2018-12-13T23:13:16.399Z,84.10
2018-12-13T23:15:44.535Z,83.66
2018-12-13T23:18:12.701Z,83.46
2018-12-13T23:20:40.813Z,83.57
2018-12-13T23:23:08.961Z,84.31
2018-12-13T23:25:37.111Z,84.35
2018-12-13T23:28:05.392Z,83.83
2018-12-13T23:30:33.499Z,83.46
2018-12-13T23:33:01.649Z,83.22
2018-12-13T23:35:29.941Z,83.45
2018-12-13T23:37:58.157Z,83.89
2018-12-13T23:40:26.495Z,83.76
2018-12-13T23:42:55.460Z,83.42
2018-12-13T23:45:23.655Z,83.18
2018-12-13T23:47:52.060Z,83.36
2018-12-13T23:50:20.881Z,83.16
2018-12-13T23:52:49.203Z,83.18
2018-12-13T23:55:17.512Z,82.64
2018-12-13T23:57:45.690Z,83.04
